Paxton, Texas
Current Conditions -  °F | °C
As of 1:56 AM on Tuesday 21 Oct 2014 (Local Time) from KSHV Reporting Station
Clear Clear  
Wind Chill: 56°   Ceiling: Unl
Heat Index: 56°   Visibility: 10mi
Dew Point: 54°   Wind: 3mph
Humidity: 93%   Direction: 260°W
Pressure: 30.03"   Gusts: NA
Location:  31.9194°N, 94.0667°W
Report Text: KSHV 210656Z 26003KT 10SM CLR 13/12 A3003 RMK AO2 SLP167 T01330122
Loading
Personal Weather Stations






























Interactive Weather Map New forecast layout! Learn more

10-Day Weather Forecast

Advertisements
Track Severe Weather on mobile